Time;durP1;ratioP1;P1;durP2;ratioP2;P2;SDS_P1;SDS_P2;PMS_P1;PMS_P2;Temp;Humidity;BMP_temperature;BMP_pressure;BME280_temperature;BME280_humidity;BME280_pressure;Samples;Min_cycle;Max_cycle;Signal;HPM_P1;HPM_P2
2023/01/29 00:01:40;;;;;;;31.48;7.90;;;;;;;2.90;100.00;101926.94;5021021;28;20485;-80
2023/01/29 00:04:07;;;;;;;25.42;8.00;;;;;;;2.89;100.00;101927.84;5047497;28;20064;-80
2023/01/29 00:06:33;;;;;;;37.95;8.52;;;;;;;2.89;100.00;101927.00;5012489;28;20084;-80
2023/01/29 00:08:59;;;;;;;13.20;8.95;;;;;;;2.92;100.00;101929.50;5039059;28;21476;-80
2023/01/29 00:11:24;;;;;;;19.35;7.55;;;;;;;2.93;100.00;101923.38;5043445;28;20036;-80
2023/01/29 00:13:51;;;;;;;23.73;7.68;;;;;;;2.98;100.00;101924.03;5040973;28;20029;-80
2023/01/29 00:16:17;;;;;;;12.60;6.57;;;;;;;2.98;100.00;101927.50;5033989;28;20044;-80
2023/01/29 00:18:43;;;;;;;17.25;8.07;;;;;;;3.00;100.00;101937.03;5034905;28;20024;-80
2023/01/29 00:21:11;;;;;;;11.43;7.85;;;;;;;3.01;100.00;101943.97;5026011;28;20033;-80
2023/01/29 00:23:37;;;;;;;13.35;8.35;;;;;;;3.04;100.00;101938.66;5004664;28;20500;-80
2023/01/29 00:26:04;;;;;;;10.93;7.43;;;;;;;3.06;100.00;101927.22;5050100;28;20037;-80
2023/01/29 00:28:30;;;;;;;14.38;8.55;;;;;;;3.09;100.00;101921.03;5048611;28;20049;-80
2023/01/29 00:30:56;;;;;;;13.50;7.45;;;;;;;3.12;100.00;101933.13;5034955;28;20061;-80
2023/01/29 00:33:21;;;;;;;12.63;6.75;;;;;;;3.11;100.00;101929.66;5057299;28;20037;-80
2023/01/29 00:35:47;;;;;;;13.13;7.75;;;;;;;3.12;100.00;101922.66;5059727;28;20120;-80
2023/01/29 00:38:13;;;;;;;11.60;7.53;;;;;;;3.17;100.00;101934.63;5047166;28;20037;-80
2023/01/29 00:46:09;;;;;;;12.82;7.13;;;;;;;3.11;100.00;101924.44;5058144;28;20571;-79
2023/01/29 00:48:35;;;;;;;11.95;7.72;;;;;;;3.11;100.00;101929.66;5053857;28;20111;-80
2023/01/29 00:51:01;;;;;;;9.10;6.35;;;;;;;3.10;100.00;101923.59;5052032;28;20033;-80
2023/01/29 00:53:28;;;;;;;13.63;6.95;;;;;;;3.14;100.00;101921.69;5039678;28;20029;-80
2023/01/29 00:55:54;;;;;;;17.50;6.88;;;;;;;3.17;100.00;101912.91;5042132;28;20044;-80
2023/01/29 00:58:21;;;;;;;13.82;7.18;;;;;;;3.19;100.00;101911.94;5044856;28;20142;-80
2023/01/29 01:00:48;;;;;;;11.85;7.07;;;;;;;3.22;100.00;101903.09;5027156;28;20082;-80
2023/01/29 01:03:14;;;;;;;8.30;6.25;;;;;;;3.26;100.00;101896.00;5015226;28;20047;-80
2023/01/29 01:05:41;;;;;;;10.38;5.97;;;;;;;3.30;100.00;101897.56;5044525;28;20429;-80
2023/01/29 01:11:05;;;;;;;13.70;6.35;;;;;;;3.45;100.00;101893.50;5054337;28;20032;-79
2023/01/29 01:13:33;;;;;;;12.32;6.63;;;;;;;3.49;100.00;101889.84;5043013;28;20029;-79
2023/01/29 01:15:59;;;;;;;12.65;6.72;;;;;;;3.54;100.00;101893.13;5043768;28;20162;-79
2023/01/29 01:18:28;;;;;;;6.72;5.68;;;;;;;3.59;100.00;101890.34;5058905;28;20036;-79
2023/01/29 01:20:58;;;;;;;13.75;5.70;;;;;;;3.63;100.00;101876.22;5045516;28;20487;-79
2023/01/29 01:23:24;;;;;;;12.00;6.22;;;;;;;3.65;100.00;101884.84;5043000;28;20043;-80
2023/01/29 01:25:50;;;;;;;9.38;5.57;;;;;;;3.67;100.00;101875.19;5060844;28;20610;-80
2023/01/29 01:28:16;;;;;;;7.93;4.97;;;;;;;3.69;100.00;101875.13;5061443;28;20056;-79
2023/01/29 01:30:41;;;;;;;7.80;4.55;;;;;;;3.67;100.00;101874.31;5037023;28;20044;-79
2023/01/29 01:33:07;;;;;;;10.30;5.70;;;;;;;3.69;100.00;101877.75;5070514;28;20036;-80
2023/01/29 01:35:33;;;;;;;8.23;4.90;;;;;;;3.72;100.00;101870.63;5062340;28;20040;-79
2023/01/29 01:37:59;;;;;;;6.35;4.10;;;;;;;3.75;100.00;101874.00;5060525;28;20044;-79
2023/01/29 01:40:25;;;;;;;8.52;4.28;;;;;;;3.77;100.00;101883.50;5042217;28;20048;-79
2023/01/29 01:42:54;;;;;;;7.57;4.30;;;;;;;3.81;100.00;101882.44;5045399;28;20079;-80
2023/01/29 01:45:30;;;;;;;6.70;4.45;;;;;;;3.82;100.00;101884.13;5044694;28;20205;-80
2023/01/29 01:48:11;;;;;;;;;;;;;;;3.85;100.00;101885.78;5048668;28;20035;-79
2023/01/29 01:50:42;;;;;;;6.32;3.80;;;;;;;3.86;100.00;101887.50;5042917;28;19917;-79
2023/01/29 01:53:16;;;;;;;4.40;3.17;;;;;;;3.92;100.00;101892.47;5036851;28;20120;-79
2023/01/29 01:55:53;;;;;;;4.80;3.63;;;;;;;3.98;100.00;101886.13;5026789;28;20538;-79
2023/01/29 01:58:32;;;;;;;6.07;4.32;;;;;;;3.95;100.00;101883.66;5047573;28;20074;-79
2023/01/29 02:00:58;;;;;;;6.57;4.60;;;;;;;3.91;100.00;101879.44;5063101;28;20028;-79
2023/01/29 02:09:35;;;;;;;7.95;6.05;;;;;;;3.83;100.00;101866.69;5071594;28;20028;-80
2023/01/29 02:12:05;;;;;;;11.15;6.15;;;;;;;3.81;100.00;101861.53;5041588;28;20029;-79
2023/01/29 02:14:33;;;;;;;8.98;6.15;;;;;;;3.79;100.00;101862.53;5080878;28;20042;-79
2023/01/29 02:17:00;;;;;;;10.60;6.13;;;;;;;3.73;100.00;101855.75;5062255;28;20032;-79
2023/01/29 02:19:38;;;;;;;10.30;6.35;;;;;;;3.72;100.00;101860.16;5043014;28;20037;-79
2023/01/29 02:22:37;;;;;;;10.35;7.00;;;;;;;3.66;100.00;101860.41;5050118;28;20059;-79
2023/01/29 02:25:22;;;;;;;10.45;7.13;;;;;;;3.62;100.00;101858.81;5058051;28;20029;-79
2023/01/29 02:27:48;;;;;;;11.50;7.53;;;;;;;3.56;100.00;101857.34;5036681;28;20428;-79
2023/01/29 02:30:36;;;;;;;9.90;6.97;;;;;;;3.55;100.00;101850.38;5049175;28;20087;-79
2023/01/29 02:33:29;;;;;;;10.05;6.90;;;;;;;3.55;100.00;101845.16;5039741;28;20029;-79
2023/01/29 02:36:12;;;;;;;10.75;7.07;;;;;;;3.60;100.00;101837.97;5033126;28;21240;-79
2023/01/29 02:39:04;;;;;;;11.48;6.47;;;;;;;3.62;100.00;101842.28;5033919;28;20386;-79
2023/01/29 02:41:58;;;;;;;15.35;7.43;;;;;;;3.62;100.00;101834.44;5048205;28;20473;-79
2023/01/29 02:44:35;;;;;;;11.30;6.53;;;;;;;3.61;100.00;101833.59;5031538;28;20477;-79
2023/01/29 02:47:01;;;;;;;9.57;6.53;;;;;;;3.62;100.00;101831.81;5048700;28;20083;-79
2023/01/29 02:49:34;;;;;;;8.73;5.28;;;;;;;3.66;100.00;101826.44;5019857;28;20062;-79
2023/01/29 02:52:08;;;;;;;8.80;5.25;;;;;;;3.67;100.00;101825.50;5031525;28;20504;-79
2023/01/29 02:54:34;;;;;;;7.13;5.20;;;;;;;3.64;100.00;101815.16;5027616;28;20040;-79
2023/01/29 02:57:08;;;;;;;7.20;4.70;;;;;;;3.66;100.00;101818.59;5044458;28;20037;-80
2023/01/29 02:59:41;;;;;;;6.72;5.32;;;;;;;3.65;100.00;101813.38;5056650;28;20441;-79
2023/01/29 03:02:15;;;;;;;6.90;5.10;;;;;;;3.63;100.00;101810.84;5016675;28;20029;-79
2023/01/29 03:04:52;;;;;;;7.85;4.78;;;;;;;3.63;100.00;101805.59;5008640;28;20034;-79
2023/01/29 03:07:43;;;;;;;10.18;5.40;;;;;;;3.59;100.00;101804.06;5024393;28;20534;-79
2023/01/29 03:10:33;;;;;;;9.30;5.82;;;;;;;3.56;100.00;101804.19;5009130;28;20745;-79
2023/01/29 03:13:05;;;;;;;9.20;6.00;;;;;;;3.56;100.00;101796.34;5045876;28;20461;-79
2023/01/29 03:15:45;;;;;;;12.85;6.40;;;;;;;3.54;100.00;101799.00;5038057;28;20033;-79
2023/01/29 03:18:29;;;;;;;10.90;6.78;;;;;;;3.53;100.00;101797.31;5021037;28;20079;-79
2023/01/29 03:21:48;;;;;;;11.45;6.75;;;;;;;3.53;100.00;101789.47;5031858;28;20079;-79
2023/01/29 03:32:20;;;;;;;10.13;5.72;;;;;;;3.58;100.00;101790.13;5019324;28;20045;-79
2023/01/29 03:34:51;;;;;;;9.05;6.50;;;;;;;3.62;100.00;101788.22;5014674;28;21494;-79
2023/01/29 03:37:40;;;;;;;9.90;6.10;;;;;;;3.61;100.00;101781.31;5026223;28;20060;-79
2023/01/29 03:40:08;;;;;;;9.77;6.40;;;;;;;3.62;100.00;101785.63;5023314;28;20032;-79
2023/01/29 03:42:40;;;;;;;6.07;5.05;;;;;;;3.66;100.00;101770.66;5006000;28;20033;-79
2023/01/29 03:45:22;;;;;;;6.63;4.80;;;;;;;3.70;100.00;101759.13;5037234;28;20370;-79
2023/01/29 03:47:55;;;;;;;5.85;4.63;;;;;;;3.69;100.00;101766.16;5021367;28;20393;-79
2023/01/29 03:50:46;;;;;;;7.32;4.38;;;;;;;3.74;100.00;101752.00;5037341;28;20132;-79
2023/01/29 03:53:21;;;;;;;6.07;4.07;;;;;;;3.75;100.00;101751.94;5031547;28;20072;-79
2023/01/29 03:56:08;;;;;;;8.10;4.75;;;;;;;3.79;100.00;101740.41;5051544;28;20733;-79
2023/01/29 03:58:47;;;;;;;6.55;3.95;;;;;;;3.82;100.00;101742.06;5030826;28;20540;-80
2023/01/29 04:01:28;;;;;;;7.70;4.38;;;;;;;3.79;100.00;101737.81;5050073;28;20047;-80
2023/01/29 04:04:16;;;;;;;5.68;4.28;;;;;;;3.78;100.00;101727.41;5016470;28;20028;-80
2023/01/29 04:06:46;;;;;;;9.43;4.57;;;;;;;3.78;100.00;101727.41;5024802;28;20045;-80
2023/01/29 04:09:26;;;;;;;6.72;4.35;;;;;;;3.81;100.00;101728.13;5026392;28;20041;-79
2023/01/29 04:12:02;;;;;;;7.88;3.97;;;;;;;3.80;100.00;101720.34;5041713;28;20031;-79
2023/01/29 04:14:31;;;;;;;4.25;3.67;;;;;;;3.77;100.00;101718.75;5015903;28;20114;-79
2023/01/29 04:17:00;;;;;;;4.80;3.28;;;;;;;3.78;100.00;101716.94;5030676;28;20041;-79
2023/01/29 04:19:35;;;;;;;4.30;3.00;;;;;;;3.74;100.00;101716.25;5007713;28;20037;-79
2023/01/29 04:22:06;;;;;;;4.57;3.20;;;;;;;3.78;100.00;101714.34;5036258;28;20105;-79
2023/01/29 04:24:33;;;;;;;5.97;3.65;;;;;;;3.78;100.00;101702.13;5013649;28;20045;-80
2023/01/29 04:27:34;;;;;;;4.20;3.17;;;;;;;3.84;100.00;101708.81;5022439;28;20382;-80
2023/01/29 04:30:27;;;;;;;4.40;2.92;;;;;;;3.86;100.00;101720.09;5006868;28;20055;-79
2023/01/29 04:33:18;;;;;;;3.58;2.65;;;;;;;3.87;100.00;101705.25;4987878;28;20058;-79
2023/01/29 04:35:58;;;;;;;3.53;2.28;;;;;;;3.88;100.00;101713.03;5021538;28;20048;-79
2023/01/29 04:38:33;;;;;;;3.75;2.83;;;;;;;3.87;100.00;101713.09;4999465;28;20131;-79
2023/01/29 04:41:13;;;;;;;3.70;2.20;;;;;;;3.93;100.00;101703.22;5036874;28;20043;-79
2023/01/29 04:43:50;;;;;;;2.97;1.80;;;;;;;3.93;100.00;101699.72;5015989;28;20035;-79
2023/01/29 04:46:21;;;;;;;2.13;1.80;;;;;;;3.93;100.00;101699.72;4959043;28;20064;-79
2023/01/29 04:49:13;;;;;;;2.63;1.35;;;;;;;3.92;100.00;101706.72;5034860;28;20021;-79
2023/01/29 04:51:51;;;;;;;2.42;1.42;;;;;;;3.91;100.00;101707.66;5047356;28;20478;-79
2023/01/29 04:54:44;;;;;;;1.92;1.63;;;;;;;3.91;100.00;101707.66;5010535;28;20485;-79
2023/01/29 04:57:45;;;;;;;3.35;1.40;;;;;;;3.91;100.00;101701.56;5029245;28;20561;-79
2023/01/29 05:00:14;;;;;;;2.40;1.70;;;;;;;3.92;100.00;101700.63;5017109;28;20029;-78
2023/01/29 05:02:42;;;;;;;2.83;1.40;;;;;;;3.91;100.00;101696.31;5042676;28;20080;-79
2023/01/29 05:05:09;;;;;;;2.13;1.35;;;;;;;3.94;100.00;101696.19;5031970;28;20447;-79
2023/01/29 05:07:38;;;;;;;3.17;1.92;;;;;;;3.98;100.00;101697.78;5021937;28;20033;-79
2023/01/29 05:10:06;;;;;;;2.47;1.55;;;;;;;4.03;100.00;101692.31;5046182;28;20037;-79
2023/01/29 05:12:34;;;;;;;2.50;1.40;;;;;;;4.05;100.00;101688.69;5042114;28;20037;-79
2023/01/29 05:15:02;;;;;;;2.60;1.80;;;;;;;4.08;100.00;101688.56;5028541;28;20077;-79
2023/01/29 05:17:28;;;;;;;2.10;1.45;;;;;;;4.11;100.00;101687.56;5037633;28;20029;-79
2023/01/29 05:19:55;;;;;;;2.90;1.70;;;;;;;4.14;100.00;101686.59;5039931;28;20151;-79
2023/01/29 05:22:22;;;;;;;4.22;1.30;;;;;;;4.13;100.00;101679.63;5038610;28;20367;-79
2023/01/29 05:24:49;;;;;;;4.15;1.80;;;;;;;4.15;100.00;101669.97;5053170;28;20030;-79
2023/01/29 05:30:10;;;;;;;3.80;1.58;;;;;;;4.15;100.00;101665.59;5037586;28;20033;-79
2023/01/29 05:32:36;;;;;;;4.55;2.20;;;;;;;4.17;100.00;101668.94;5015310;28;20033;-79
2023/01/29 05:35:02;;;;;;;5.03;2.22;;;;;;;4.20;100.00;101665.38;5025172;28;20032;-79
2023/01/29 05:37:28;;;;;;;3.90;2.00;;;;;;;4.24;100.00;101664.28;5024589;28;21822;-79
2023/01/29 05:39:54;;;;;;;6.00;1.98;;;;;;;4.26;100.00;101667.69;5027502;28;20048;-79
2023/01/29 05:42:20;;;;;;;4.30;2.28;;;;;;;4.27;100.00;101660.69;5028298;28;20094;-79
2023/01/29 05:44:46;;;;;;;3.47;1.98;;;;;;;4.30;100.00;101658.75;5017985;28;20685;-79
2023/01/29 05:47:12;;;;;;;3.95;1.88;;;;;;;4.31;100.00;101654.38;5036809;28;20071;-80
2023/01/29 05:49:37;;;;;;;6.63;2.13;;;;;;;4.33;100.00;101650.75;5033078;28;20366;-79
2023/01/29 05:52:03;;;;;;;3.53;2.17;;;;;;;4.32;100.00;101650.84;5034742;28;20116;-79
2023/01/29 05:54:29;;;;;;;4.50;2.17;;;;;;;4.34;100.00;101660.31;5025996;28;20041;-79
2023/01/29 05:56:55;;;;;;;2.88;2.00;;;;;;;4.32;100.00;101646.44;5033448;28;20505;-79
2023/01/29 05:59:20;;;;;;;4.57;2.25;;;;;;;4.37;100.00;101653.22;5019517;28;20033;-79
2023/01/29 06:01:46;;;;;;;5.22;2.50;;;;;;;4.37;100.00;101656.69;5044778;28;20038;-79
2023/01/29 06:04:12;;;;;;;4.43;2.42;;;;;;;4.37;100.00;101643.63;5043952;28;20025;-79
2023/01/29 06:06:38;;;;;;;5.13;2.55;;;;;;;4.38;100.00;101647.09;5044036;28;20025;-79
2023/01/29 06:09:03;;;;;;;3.50;2.30;;;;;;;4.39;100.00;101640.91;5025685;28;20033;-79
2023/01/29 06:11:29;;;;;;;5.55;2.25;;;;;;;4.39;100.00;101641.78;5032067;28;20060;-79
2023/01/29 06:13:55;;;;;;;4.63;2.20;;;;;;;4.41;100.00;101642.53;5020316;28;20486;-80
2023/01/29 06:16:20;;;;;;;4.95;2.42;;;;;;;4.42;100.00;101636.41;5035428;28;21893;-79
2023/01/29 06:18:46;;;;;;;5.55;2.33;;;;;;;4.44;100.00;101637.16;5046894;28;20040;-79
2023/01/29 06:21:13;;;;;;;3.15;2.47;;;;;;;4.46;100.00;101634.44;5020136;28;20489;-79
2023/01/29 06:23:39;;;;;;;4.13;2.42;;;;;;;4.46;100.00;101630.06;5027633;28;20029;-79
2023/01/29 06:26:07;;;;;;;4.13;2.65;;;;;;;4.52;100.00;101634.19;5037363;28;20037;-79
2023/01/29 06:28:33;;;;;;;3.38;2.28;;;;;;;4.52;100.00;101631.56;5028540;28;20833;-79
2023/01/29 06:31:01;;;;;;;3.78;2.45;;;;;;;4.53;100.00;101635.88;5016983;28;20031;-79
2023/01/29 06:33:27;;;;;;;5.03;2.58;;;;;;;4.51;100.00;101629.84;5029630;28;20041;-79
2023/01/29 06:35:57;;;;;;;5.25;2.28;;;;;;;4.55;100.00;101626.19;5035069;28;20032;-79
2023/01/29 06:38:24;;;;;;;4.18;2.70;;;;;;;4.53;100.00;101638.47;5043711;28;20732;-79
2023/01/29 06:40:50;;;;;;;3.63;2.40;;;;;;;4.55;100.00;101630.56;5038659;28;20533;-79
2023/01/29 06:43:15;;;;;;;4.78;2.30;;;;;;;4.55;100.00;101628.78;5044680;28;20478;-79
2023/01/29 06:45:53;;;;;;;3.75;2.33;;;;;;;4.57;100.00;101637.41;5021399;28;20036;-80
2023/01/29 06:48:18;;;;;;;4.20;2.28;;;;;;;4.50;100.00;101633.41;5030193;28;20389;-79
2023/01/29 06:50:45;;;;;;;5.80;2.22;;;;;;;4.52;100.00;101630.72;5034625;28;20044;-79
2023/01/29 06:53:12;;;;;;;5.18;2.10;;;;;;;4.53;100.00;101633.25;5021900;28;20155;-79
2023/01/29 06:55:38;;;;;;;4.10;2.97;;;;;;;4.55;100.00;101622.69;5049345;28;20124;-79
2023/01/29 06:58:11;;;;;;;3.05;1.98;;;;;;;4.58;100.00;101620.78;5029029;28;20109;-79
2023/01/29 07:00:37;;;;;;;1.90;1.67;;;;;;;4.57;100.00;101626.94;5041434;28;20116;-79
2023/01/29 07:03:03;;;;;;;4.07;2.22;;;;;;;4.61;100.00;101625.00;5023926;28;20100;-79
2023/01/29 07:05:30;;;;;;;3.83;2.00;;;;;;;4.64;100.00;101621.38;5038583;28;20024;-79
2023/01/29 07:07:56;;;;;;;3.60;1.98;;;;;;;4.66;100.00;101619.53;5045674;28;20029;-79
2023/01/29 07:10:22;;;;;;;2.08;1.55;;;;;;;4.68;100.00;101612.47;5051840;28;20032;-79
2023/01/29 07:12:48;;;;;;;2.72;1.50;;;;;;;4.69;100.00;101606.28;4999658;28;20037;-79
2023/01/29 07:15:18;;;;;;;3.53;1.58;;;;;;;4.68;100.00;101607.22;5046370;28;20029;-79
2023/01/29 07:17:54;;;;;;;1.25;1.05;;;;;;;4.70;100.00;101590.50;5049959;28;20044;-79
2023/01/29 07:20:20;;;;;;;2.20;1.00;;;;;;;4.69;100.00;101598.44;5030519;28;20048;-79
2023/01/29 07:22:46;;;;;;;2.92;1.23;;;;;;;4.70;100.00;101600.13;5029269;28;20036;-79
2023/01/29 07:25:12;;;;;;;2.75;0.80;;;;;;;4.72;100.00;101586.03;5038050;28;20056;-79
2023/01/29 07:27:38;;;;;;;4.88;1.00;;;;;;;4.76;100.00;101593.75;5057538;28;20434;-79
2023/01/29 07:30:04;;;;;;;2.15;0.70;;;;;;;4.79;100.00;101594.44;5068745;28;20428;-79
2023/01/29 07:32:30;;;;;;;2.30;0.70;;;;;;;4.81;100.00;101589.94;5059848;28;20037;-79
2023/01/29 07:34:56;;;;;;;1.42;0.80;;;;;;;4.82;100.00;101583.81;5030639;28;20033;-79
2023/01/29 07:37:21;;;;;;;2.78;1.40;;;;;;;4.75;100.00;101585.03;5061235;28;20040;-79
2023/01/29 07:39:47;;;;;;;2.28;1.30;;;;;;;4.72;100.00;101583.44;5073783;28;20032;-79
2023/01/29 07:42:13;;;;;;;2.40;2.00;;;;;;;4.68;100.00;101588.91;5035037;28;20040;-79
2023/01/29 07:44:39;;;;;;;12.20;7.28;;;;;;;4.68;100.00;101578.41;5053214;28;20068;-79
2023/01/29 07:47:04;;;;;;;5.05;3.63;;;;;;;4.67;100.00;101590.66;5065003;28;20035;-79
2023/01/29 07:49:30;;;;;;;16.10;11.30;;;;;;;4.68;100.00;101584.50;5047573;28;20323;-79
2023/01/29 07:51:56;;;;;;;26.40;19.88;;;;;;;4.71;100.00;101591.34;5055993;28;20032;-79
2023/01/29 07:54:21;;;;;;;29.38;22.05;;;;;;;4.74;100.00;101591.19;5069791;28;20032;-79
2023/01/29 07:56:47;;;;;;;10.40;8.50;;;;;;;4.71;100.00;101596.59;5064300;28;20134;-79
2023/01/29 07:59:13;;;;;;;22.25;14.50;;;;;;;4.66;100.00;101594.22;5060994;28;20028;-79
2023/01/29 08:01:39;;;;;;;12.13;8.02;;;;;;;4.67;100.00;101597.66;5067717;28;20032;-79
2023/01/29 08:04:04;;;;;;;12.85;6.75;;;;;;;4.65;100.00;101602.16;5040545;28;20042;-78
2023/01/29 08:06:30;;;;;;;4.50;2.88;;;;;;;4.62;100.00;101597.88;5064545;28;20395;-79
2023/01/29 08:08:56;;;;;;;3.92;2.25;;;;;;;4.60;100.00;101605.00;5037240;28;20477;-79
2023/01/29 08:11:22;;;;;;;3.83;2.03;;;;;;;4.57;100.00;101605.97;5040982;28;20183;-79
2023/01/29 08:13:47;;;;;;;6.68;2.78;;;;;;;4.55;100.00;101610.47;5053838;28;20458;-79
2023/01/29 08:16:13;;;;;;;5.45;3.80;;;;;;;4.56;100.00;101599.06;5059319;28;20029;-79
2023/01/29 08:18:42;;;;;;;4.28;3.70;;;;;;;4.54;100.00;101606.13;5040640;28;20032;-79
2023/01/29 08:21:09;;;;;;;10.65;7.10;;;;;;;4.55;100.00;101604.38;5043824;28;20025;-79
2023/01/29 08:23:34;;;;;;;13.82;9.45;;;;;;;4.51;100.00;101611.53;5030138;28;20039;-79
2023/01/29 08:26:03;;;;;;;7.95;5.38;;;;;;;4.55;100.00;101609.59;5024075;28;20037;-79
2023/01/29 08:28:29;;;;;;;5.70;3.40;;;;;;;4.50;100.00;101617.69;5025430;28;20523;-79
2023/01/29 08:30:55;;;;;;;3.72;2.78;;;;;;;4.49;100.00;101608.13;5046936;28;20043;-79
2023/01/29 08:33:21;;;;;;;3.78;1.80;;;;;;;4.47;100.00;101617.84;5028209;28;20103;-79
2023/01/29 08:35:49;;;;;;;7.43;2.97;;;;;;;4.48;100.00;101614.28;5032085;28;20380;-79
2023/01/29 08:38:16;;;;;;;2.35;1.95;;;;;;;4.48;100.00;101614.28;5035332;28;20097;-79
2023/01/29 08:40:42;;;;;;;9.07;6.10;;;;;;;4.46;100.00;101614.38;5049230;28;20040;-79
2023/01/29 08:43:10;;;;;;;3.30;1.50;;;;;;;4.51;100.00;101608.06;5066815;28;20056;-79
2023/01/29 08:45:42;;;;;;;2.08;1.85;;;;;;;4.51;100.00;101611.53;5042699;28;20047;-79
2023/01/29 08:48:08;;;;;;;1.98;1.70;;;;;;;4.50;100.00;101616.84;5025666;28;20409;-79
2023/01/29 08:50:34;;;;;;;3.35;1.67;;;;;;;4.49;100.00;101618.59;5022198;28;20036;-79
2023/01/29 08:53:04;;;;;;;1.73;1.63;;;;;;;4.51;100.00;101611.53;5063508;28;20119;-79
2023/01/29 08:55:30;;;;;;;4.00;2.45;;;;;;;4.50;100.00;101612.44;5052412;28;20120;-80
2023/01/29 08:57:58;;;;;;;8.18;1.92;;;;;;;4.50;100.00;101615.06;5053230;28;20041;-80
2023/01/29 09:00:24;;;;;;;3.20;2.40;;;;;;;4.51;100.00;101615.94;5041761;28;20044;-79
2023/01/29 09:02:50;;;;;;;2.90;2.33;;;;;;;4.52;100.00;101615.00;5038720;28;20025;-79
2023/01/29 09:05:16;;;;;;;2.88;2.20;;;;;;;4.52;100.00;101615.84;5052690;28;20037;-79
2023/01/29 09:07:41;;;;;;;15.02;3.58;;;;;;;4.55;100.00;101618.31;5052456;28;20036;-79
2023/01/29 09:10:08;;;;;;;6.63;3.40;;;;;;;4.59;100.00;101622.47;5030549;28;20068;-79
2023/01/29 09:12:34;;;;;;;4.72;3.72;;;;;;;4.63;100.00;101619.69;5042148;28;20029;-79
2023/01/29 09:14:59;;;;;;;4.20;1.60;;;;;;;4.68;100.00;101630.81;5040047;28;20037;-79
2023/01/29 09:17:25;;;;;;;7.10;1.88;;;;;;;4.66;100.00;101624.78;5048924;28;20028;-80
2023/01/29 09:19:51;;;;;;;6.10;3.00;;;;;;;4.72;100.00;101621.84;5061952;28;20538;-79
2023/01/29 09:22:18;;;;;;;11.15;1.30;;;;;;;4.79;100.00;101622.41;5024526;28;20489;-79
2023/01/29 09:24:44;;;;;;;5.65;1.00;;;;;;;4.82;100.00;101627.50;5015751;28;20032;-79
2023/01/29 09:27:10;;;;;;;5.60;2.20;;;;;;;4.84;100.00;101628.28;5046132;28;20104;-79
2023/01/29 09:29:36;;;;;;;14.07;2.45;;;;;;;4.88;100.00;101627.19;5010138;28;20041;-79
2023/01/29 09:32:05;;;;;;;4.22;1.00;;;;;;;4.94;100.00;101623.38;5039745;28;20059;-79
2023/01/29 09:34:30;;;;;;;3.53;1.02;;;;;;;4.94;100.00;101629.47;5040252;28;20108;-80
2023/01/29 09:36:56;;;;;;;6.75;2.03;;;;;;;4.97;100.00;101626.69;5042170;28;20565;-79
2023/01/29 09:39:22;;;;;;;8.07;2.35;;;;;;;5.01;100.00;101626.53;5044012;28;20076;-79
2023/01/29 09:42:17;;;;;;;2.95;1.75;;;;;;;5.06;100.00;101622.78;5041732;28;20024;-79
2023/01/29 09:45:10;;;;;;;6.50;1.75;;;;;;;5.11;100.00;101621.69;5013302;28;20114;-79
2023/01/29 09:47:36;;;;;;;5.32;2.40;;;;;;;5.11;100.00;101605.97;5039126;28;20131;-79
2023/01/29 09:50:07;;;;;;;5.55;3.67;;;;;;;5.15;100.00;101605.72;5043573;28;20112;-79
2023/01/29 09:52:52;;;;;;;5.80;3.83;;;;;;;5.23;100.00;101613.19;5062211;28;20025;-79
2023/01/29 09:55:26;;;;;;;1.70;1.15;;;;;;;5.21;100.00;101615.88;5053882;28;20041;-80
2023/01/29 09:57:58;;;;;;;7.70;3.17;;;;;;;5.25;100.00;101611.34;5044299;28;20589;-79
2023/01/29 10:00:43;;;;;;;9.15;1.98;;;;;;;5.28;100.00;101605.94;5051884;28;20033;-79
2023/01/29 10:03:22;;;;;;;5.18;1.95;;;;;;;5.31;100.00;101616.25;5046643;28;20053;-79
2023/01/29 10:06:09;;;;;;;3.67;1.58;;;;;;;5.34;100.00;101608.22;5043588;28;20033;-79
2023/01/29 10:08:58;;;;;;;5.82;1.58;;;;;;;5.41;100.00;101606.13;5034669;28;20058;-79
2023/01/29 10:11:42;;;;;;;2.97;1.98;;;;;;;5.43;100.00;101608.69;5044108;28;20029;-79
2023/01/29 10:14:25;;;;;;;3.92;1.70;;;;;;;5.46;100.00;101603.25;5010484;28;20041;-79
2023/01/29 10:16:53;;;;;;;6.60;2.03;;;;;;;5.43;100.00;101598.19;5055410;28;20033;-80
2023/01/29 10:19:22;;;;;;;29.52;13.20;;;;;;;5.49;100.00;101595.22;5049157;28;20095;-80
2023/01/29 10:22:09;;;;;;;14.38;9.43;;;;;;;5.54;100.00;101598.44;5048540;28;20021;-79
2023/01/29 10:24:48;;;;;;;8.88;6.82;;;;;;;5.61;100.00;101595.47;5037656;28;20409;-80
2023/01/29 10:27:15;;;;;;;3.90;2.40;;;;;;;5.63;100.00;101586.63;5031281;28;20053;-79
2023/01/29 10:29:43;;;;;;;6.78;2.55;;;;;;;5.68;100.00;101589.84;5021250;28;20029;-79
2023/01/29 10:32:16;;;;;;;11.75;8.30;;;;;;;5.75;100.00;101569.34;4988622;28;20497;-79
2023/01/29 10:34:51;;;;;;;11.88;8.60;;;;;;;5.84;100.00;101570.63;5019163;28;20125;-79
2023/01/29 10:37:23;;;;;;;9.02;7.22;;;;;;;5.92;100.00;101575.44;5030207;28;20056;-79
2023/01/29 10:39:49;;;;;;;7.65;3.72;;;;;;;5.98;100.00;101574.25;5041249;28;20025;-79
2023/01/29 10:42:37;;;;;;;7.40;2.83;;;;;;;6.13;100.00;101581.28;5029681;28;20445;-80
2023/01/29 10:45:06;;;;;;;39.22;22.33;;;;;;;6.18;100.00;101573.16;5026587;28;20078;-79
2023/01/29 10:47:35;;;;;;;75.45;49.53;;;;;;;6.26;100.00;101568.31;5040325;28;20355;-79
2023/01/29 10:50:35;;;;;;;29.27;23.35;;;;;;;6.31;100.00;101562.78;5004549;28;20124;-79
2023/01/29 10:53:19;;;;;;;27.80;15.15;;;;;;;6.37;100.00;101562.44;5006019;28;20435;-79
2023/01/29 10:55:57;;;;;;;8.75;6.35;;;;;;;6.46;100.00;101558.44;5030549;28;20041;-79
2023/01/29 10:58:35;;;;;;;4.70;2.00;;;;;;;6.54;100.00;101561.47;5037805;28;20544;-79
2023/01/29 11:01:01;;;;;;;3.97;1.35;;;;;;;6.57;100.00;101558.66;5036481;28;20029;-79
2023/01/29 11:03:30;;;;;;;2.38;1.20;;;;;;;6.66;100.00;101561.66;5035504;28;20481;-79
2023/01/29 11:06:12;;;;;;;1.90;1.17;;;;;;;6.76;100.00;101559.34;5041173;28;20078;-79
2023/01/29 11:08:44;;;;;;;8.63;1.40;;;;;;;6.79;100.00;101556.53;5036890;28;20108;-79
2023/01/29 11:11:21;;;;;;;4.57;0.95;;;;;;;6.89;100.00;101556.81;5040232;28;20487;-79
2023/01/29 11:13:56;;;;;;;2.08;0.93;;;;;;;6.94;100.00;101550.34;5042772;28;20036;-79
2023/01/29 11:16:22;;;;;;;1.20;0.73;;;;;;;6.96;100.00;101552.88;5035303;28;20172;-79
2023/01/29 11:18:51;;;;;;;2.95;1.25;;;;;;;7.01;100.00;101553.44;5042551;28;20036;-79
2023/01/29 11:21:17;;;;;;;3.60;1.85;;;;;;;7.03;100.00;101554.22;4983679;28;20095;-79
2023/01/29 11:23:43;;;;;;;1.52;0.93;;;;;;;7.04;100.00;101542.75;5043149;28;20110;-79
2023/01/29 11:26:18;;;;;;;7.53;3.42;;;;;;;7.06;100.00;101530.34;5013610;28;20045;-79
2023/01/29 11:28:49;;;;;;;1.85;1.10;;;;;;;7.07;100.00;101525.94;5059786;28;20111;-80
2023/01/29 11:31:25;;;;;;;4.90;1.00;;;;;;;7.08;100.00;101522.38;5043603;28;20033;-80
2023/01/29 11:34:01;;;;;;;2.63;1.00;;;;;;;7.06;100.00;101521.63;5041743;28;20028;-79
2023/01/29 11:36:37;;;;;;;0.77;0.77;;;;;;;7.07;100.00;101516.25;5046724;28;20039;-79
2023/01/29 11:39:19;;;;;;;2.30;1.10;;;;;;;7.10;100.00;101515.25;5055460;28;20033;-78
2023/01/29 11:41:56;;;;;;;2.25;1.20;;;;;;;7.10;100.00;101515.25;5027289;28;20037;-79
2023/01/29 11:44:41;;;;;;;5.43;2.13;;;;;;;7.13;100.00;101514.19;5043919;28;20039;-79
2023/01/29 11:47:19;;;;;;;2.10;1.20;;;;;;;7.16;100.00;101511.38;5062346;28;20443;-79
2023/01/29 11:49:55;;;;;;;1.55;1.20;;;;;;;7.20;100.00;101503.19;5057756;28;20037;-79
2023/01/29 11:52:24;;;;;;;1.33;0.80;;;;;;;7.23;100.00;101501.31;5041861;28;20115;-79
2023/01/29 11:54:53;;;;;;;2.00;1.10;;;;;;;7.28;100.00;101496.59;5055946;28;20078;-79
2023/01/29 11:57:39;;;;;;;4.18;1.15;;;;;;;7.35;100.00;101494.44;5041043;28;20069;-79
2023/01/29 12:00:22;;;;;;;;;;;;;;;7.35;100.00;101489.19;5060546;28;20380;-79
2023/01/29 12:02:55;;;;;;;2.08;0.50;;;;;;;7.50;100.00;101479.47;5048371;28;19916;-80
2023/01/29 12:05:26;;;;;;;8.27;0.98;;;;;;;7.61;100.00;101482.28;5037099;28;20074;-81
2023/01/29 12:08:00;;;;;;;1.95;0.50;;;;;;;7.70;100.00;101475.56;5055458;28;20036;-79
2023/01/29 12:10:33;;;;;;;3.38;0.52;;;;;;;7.80;100.00;101465.28;5054398;28;20103;-79